createdAt,value
2023-05-14T00:00:04.019Z,234.93
2023-05-14T00:01:04.025Z,234.23
2023-05-14T00:02:04.068Z,234.14
2023-05-14T00:03:04.056Z,234.28
2023-05-14T00:04:04.108Z,234.35
2023-05-14T00:05:03.974Z,233.38
2023-05-14T00:06:03.991Z,234.32
2023-05-14T00:07:03.971Z,235.23
2023-05-14T00:08:03.970Z,234.92
2023-05-14T00:09:04.000Z,234.71
2023-05-14T00:10:03.964Z,235.05
2023-05-14T00:11:03.957Z,235.02
2023-05-14T00:12:03.974Z,235.03
2023-05-14T00:13:03.917Z,234.80
2023-05-14T00:14:03.907Z,234.72
2023-05-14T00:15:03.907Z,233.66
2023-05-14T00:16:03.929Z,233.89
2023-05-14T00:17:03.893Z,232.88
2023-05-14T00:18:03.944Z,233.34
2023-05-14T00:19:03.965Z,233.94
2023-05-14T00:20:03.920Z,235.29
2023-05-14T00:21:03.890Z,234.97
2023-05-14T00:22:03.857Z,233.51
2023-05-14T00:23:03.865Z,234.42
2023-05-14T00:24:03.848Z,233.87
2023-05-14T00:25:03.861Z,233.53
2023-05-14T00:26:03.817Z,234.98
2023-05-14T00:27:03.876Z,233.96
2023-05-14T00:28:03.834Z,234.28
2023-05-14T00:29:03.820Z,234.17
2023-05-14T00:30:03.799Z,234.39
2023-05-14T00:31:03.807Z,232.46
2023-05-14T00:32:03.797Z,233.88
2023-05-14T00:33:03.898Z,232.81
2023-05-14T00:34:03.743Z,234.39
2023-05-14T00:35:03.787Z,233.31
2023-05-14T00:36:03.736Z,233.22
2023-05-14T00:37:03.774Z,232.98
2023-05-14T00:38:03.793Z,234.41
2023-05-14T00:39:03.775Z,233.79
2023-05-14T00:40:03.837Z,233.53
2023-05-14T00:41:03.748Z,234.81
2023-05-14T00:42:03.728Z,233.47
2023-05-14T00:43:03.712Z,232.82
2023-05-14T00:44:03.729Z,233.16
2023-05-14T00:45:03.695Z,234.46
2023-05-14T00:46:03.706Z,233.19
2023-05-14T00:47:03.837Z,232.35
2023-05-14T00:48:03.753Z,233.17
2023-05-14T00:49:03.704Z,234.00
2023-05-14T00:50:03.665Z,233.27
2023-05-14T00:51:03.639Z,232.78
2023-05-14T00:52:03.664Z,232.55
2023-05-14T00:53:03.655Z,233.87
2023-05-14T00:54:03.649Z,232.70
2023-05-14T00:55:03.659Z,232.81
2023-05-14T00:56:03.631Z,233.14
2023-05-14T00:57:03.602Z,234.25
2023-05-14T00:58:03.599Z,233.25
2023-05-14T00:59:03.606Z,234.16
2023-05-14T01:00:03.589Z,233.63
2023-05-14T01:01:03.645Z,233.70
2023-05-14T01:02:03.608Z,234.04
2023-05-14T01:03:03.759Z,234.10
2023-05-14T01:04:03.623Z,232.81
2023-05-14T01:05:03.575Z,234.19
2023-05-14T01:06:03.579Z,234.76
2023-05-14T01:07:03.556Z,235.29
2023-05-14T01:08:03.591Z,234.70
2023-05-14T01:09:03.551Z,234.22
2023-05-14T01:10:03.557Z,234.23
2023-05-14T01:11:03.560Z,234.04
2023-05-14T01:12:03.549Z,233.89
2023-05-14T01:13:03.529Z,233.45
2023-05-14T01:14:03.506Z,233.98
2023-05-14T01:15:03.521Z,234.25
2023-05-14T01:16:03.516Z,232.79
2023-05-14T01:17:03.475Z,232.91
2023-05-14T01:18:03.530Z,234.11
2023-05-14T01:19:03.476Z,233.44
2023-05-14T01:20:03.455Z,233.20
2023-05-14T01:21:03.438Z,235.97
2023-05-14T01:22:03.453Z,232.72
2023-05-14T01:23:03.439Z,233.34
2023-05-14T01:24:03.454Z,232.98
2023-05-14T01:25:03.436Z,233.83
2023-05-14T01:26:03.434Z,233.04
2023-05-14T01:27:03.393Z,233.48
2023-05-14T01:28:03.430Z,233.52
2023-05-14T01:29:03.394Z,232.53
2023-05-14T01:30:03.413Z,232.57
2023-05-14T01:31:03.379Z,232.84
2023-05-14T01:32:03.478Z,232.84
2023-05-14T01:33:03.421Z,232.08
2023-05-14T01:34:03.354Z,232.81
2023-05-14T01:35:03.359Z,233.30
2023-05-14T01:36:03.382Z,234.47
2023-05-14T01:37:03.320Z,233.84
2023-05-14T01:38:03.333Z,233.93
2023-05-14T01:39:03.341Z,233.60
2023-05-14T01:40:03.354Z,234.61
2023-05-14T01:41:03.307Z,232.71
2023-05-14T01:42:03.356Z,232.71
2023-05-14T01:43:03.335Z,234.60
2023-05-14T01:44:03.288Z,232.91
2023-05-14T01:45:03.317Z,232.83
2023-05-14T01:46:03.345Z,233.16
2023-05-14T01:47:03.235Z,234.12
2023-05-14T01:48:03.297Z,232.28
2023-05-14T01:49:03.223Z,231.09
2023-05-14T01:50:03.238Z,232.13
2023-05-14T01:51:03.264Z,232.49
2023-05-14T01:52:03.262Z,232.16
2023-05-14T01:53:03.227Z,232.39
2023-05-14T01:54:03.232Z,231.75
2023-05-14T01:55:03.233Z,232.58
2023-05-14T01:56:03.255Z,233.06
2023-05-14T01:57:03.213Z,232.08
2023-05-14T01:58:03.204Z,230.83
2023-05-14T01:59:03.167Z,231.27
2023-05-14T02:00:03.178Z,232.82
2023-05-14T02:01:03.123Z,232.99
2023-05-14T02:02:03.167Z,233.72
2023-05-14T02:03:03.229Z,232.30
2023-05-14T02:04:03.201Z,231.63
2023-05-14T02:05:04.338Z,232.42
2023-05-14T02:06:03.118Z,233.80
2023-05-14T02:07:03.102Z,232.22
2023-05-14T02:08:03.102Z,233.10
2023-05-14T02:09:03.141Z,232.33
2023-05-14T02:10:03.145Z,232.86
2023-05-14T02:11:03.092Z,232.50
2023-05-14T02:12:03.073Z,232.09
2023-05-14T02:13:03.088Z,232.42
2023-05-14T02:14:03.084Z,232.05
2023-05-14T02:15:03.069Z,232.43
2023-05-14T02:16:03.118Z,231.78
2023-05-14T02:17:03.060Z,231.57
2023-05-14T02:18:03.107Z,232.08
2023-05-14T02:19:03.090Z,232.49
2023-05-14T02:20:03.054Z,232.05
2023-05-14T02:21:03.028Z,232.85
2023-05-14T02:22:03.011Z,232.85
2023-05-14T02:23:03.033Z,232.36
2023-05-14T02:24:02.981Z,230.39
2023-05-14T02:25:02.986Z,231.91
2023-05-14T02:26:02.969Z,232.61
2023-05-14T02:27:02.974Z,232.33
2023-05-14T02:28:03.027Z,231.78
2023-05-14T02:29:02.977Z,232.04
2023-05-14T02:30:03.003Z,232.42
2023-05-14T02:31:03.012Z,233.33
2023-05-14T02:32:02.962Z,232.95
2023-05-14T02:33:03.054Z,231.43
2023-05-14T02:34:02.933Z,233.19
2023-05-14T02:35:02.916Z,231.79
2023-05-14T02:36:02.935Z,232.27
2023-05-14T02:37:02.932Z,234.34
2023-05-14T02:38:02.897Z,233.25
2023-05-14T02:39:02.895Z,232.79
2023-05-14T02:40:02.876Z,231.48
2023-05-14T02:41:02.869Z,232.96
2023-05-14T02:42:02.882Z,232.35
2023-05-14T02:43:02.872Z,231.38
2023-05-14T02:44:02.879Z,229.99
2023-05-14T02:45:02.853Z,229.92
2023-05-14T02:46:02.871Z,231.66
2023-05-14T02:47:02.933Z,231.02
2023-05-14T02:48:02.861Z,231.52
2023-05-14T02:49:02.805Z,231.29
2023-05-14T02:50:02.829Z,232.75
2023-05-14T02:51:02.831Z,231.46
2023-05-14T02:52:02.816Z,231.25
2023-05-14T02:53:02.814Z,230.21
2023-05-14T02:54:02.796Z,231.69
2023-05-14T02:55:02.769Z,230.37
2023-05-14T02:56:02.770Z,231.18
2023-05-14T02:57:02.784Z,230.42
2023-05-14T02:58:02.757Z,232.26
2023-05-14T02:59:02.741Z,231.15
2023-05-14T03:00:02.774Z,230.08
2023-05-14T03:01:02.764Z,231.08
2023-05-14T03:02:02.781Z,231.46
2023-05-14T03:03:02.744Z,230.39
2023-05-14T03:04:02.737Z,231.82
2023-05-14T03:05:02.708Z,230.64
2023-05-14T03:06:02.724Z,231.65
2023-05-14T03:07:02.690Z,230.84
2023-05-14T03:08:02.712Z,232.46
2023-05-14T03:09:02.681Z,231.60
2023-05-14T03:10:02.677Z,231.02
2023-05-14T03:11:02.663Z,231.06
2023-05-14T03:12:02.677Z,232.18
2023-05-14T03:13:02.698Z,231.69
2023-05-14T03:14:02.653Z,229.93
2023-05-14T03:15:02.669Z,231.87
2023-05-14T03:16:02.662Z,231.28
2023-05-14T03:17:02.841Z,230.04
2023-05-14T03:18:02.665Z,231.81
2023-05-14T03:19:02.643Z,232.28
2023-05-14T03:20:02.620Z,228.76
2023-05-14T03:21:02.625Z,231.80
2023-05-14T03:22:02.641Z,230.93
2023-05-14T03:23:02.594Z,230.26
2023-05-14T03:24:02.632Z,230.51
2023-05-14T03:25:02.559Z,229.62
2023-05-14T03:26:02.577Z,231.47
2023-05-14T03:27:02.567Z,230.75
2023-05-14T03:28:02.557Z,230.93
2023-05-14T03:29:02.577Z,229.41
2023-05-14T03:30:02.556Z,231.01
2023-05-14T03:31:02.590Z,229.95
2023-05-14T03:32:02.535Z,230.96
2023-05-14T03:33:02.516Z,229.54
2023-05-14T03:34:02.555Z,229.66
2023-05-14T03:35:02.528Z,230.40
2023-05-14T03:36:02.485Z,230.58
2023-05-14T03:37:02.491Z,230.87
2023-05-14T03:38:02.460Z,229.48
2023-05-14T03:39:02.492Z,229.55
2023-05-14T03:40:02.499Z,228.72
2023-05-14T03:41:02.446Z,229.72
2023-05-14T03:42:02.484Z,227.73
2023-05-14T03:43:02.472Z,229.99
2023-05-14T03:44:02.464Z,228.56
2023-05-14T03:45:02.418Z,229.30
2023-05-14T03:46:02.439Z,228.27
2023-05-14T03:47:02.491Z,227.94
2023-05-14T03:48:02.515Z,230.22
2023-05-14T03:49:02.597Z,230.15
2023-05-14T03:50:02.407Z,229.65
2023-05-14T03:51:02.442Z,229.61
2023-05-14T03:52:02.510Z,229.36
2023-05-14T03:53:02.520Z,227.68
2023-05-14T03:54:02.499Z,227.26
2023-05-14T03:55:02.523Z,227.83
2023-05-14T03:56:02.570Z,229.66
2023-05-14T03:57:02.548Z,228.76
2023-05-14T03:58:02.554Z,228.15
2023-05-14T03:59:02.562Z,228.03
2023-05-14T04:00:02.625Z,227.04
2023-05-14T04:01:02.590Z,229.53
2023-05-14T04:02:02.610Z,228.77
2023-05-14T04:03:02.852Z,229.87
2023-05-14T04:04:02.746Z,229.70
2023-05-14T04:05:02.670Z,227.38
2023-05-14T04:06:02.668Z,228.57
2023-05-14T04:07:02.721Z,228.77
2023-05-14T04:08:02.698Z,229.38
2023-05-14T04:09:02.750Z,229.28
2023-05-14T04:10:04.352Z,228.54
2023-05-14T04:11:02.724Z,226.36
2023-05-14T04:12:02.742Z,228.08
2023-05-14T04:13:02.699Z,227.54
2023-05-14T04:14:02.698Z,227.68
2023-05-14T04:15:02.679Z,228.12
2023-05-14T04:16:02.735Z,228.59
2023-05-14T04:17:02.680Z,228.70
2023-05-14T04:18:02.701Z,228.69
2023-05-14T04:19:02.727Z,228.06
2023-05-14T04:20:02.696Z,227.72
2023-05-14T04:21:02.723Z,227.19
2023-05-14T04:22:02.739Z,229.29
2023-05-14T04:23:02.753Z,228.76
2023-05-14T04:24:02.779Z,226.12
2023-05-14T04:25:02.741Z,228.84
2023-05-14T04:26:02.784Z,229.81
2023-05-14T04:27:02.803Z,226.41
2023-05-14T04:28:02.863Z,226.23
2023-05-14T04:29:02.873Z,226.51
2023-05-14T04:30:02.827Z,227.70
2023-05-14T04:31:02.813Z,228.15
2023-05-14T04:32:02.916Z,226.91
2023-05-14T04:33:02.934Z,227.94
2023-05-14T04:34:02.906Z,229.04
2023-05-14T04:35:02.860Z,228.13
2023-05-14T04:36:02.913Z,227.15
2023-05-14T04:37:02.918Z,227.79
2023-05-14T04:38:02.918Z,227.56
2023-05-14T04:39:02.911Z,227.44
2023-05-14T04:40:03.135Z,226.64
2023-05-14T04:41:02.966Z,226.40
2023-05-14T04:42:02.956Z,225.36
2023-05-14T04:43:03.017Z,228.39
2023-05-14T04:44:03.016Z,226.89
2023-05-14T04:45:03.092Z,226.86
2023-05-14T04:46:03.142Z,227.68
2023-05-14T04:47:03.084Z,227.39
2023-05-14T04:48:03.111Z,228.18
2023-05-14T04:49:03.074Z,225.74
2023-05-14T04:50:03.089Z,226.16
2023-05-14T04:51:04.023Z,226.59
2023-05-14T04:52:03.138Z,226.89
2023-05-14T04:53:03.143Z,227.03
2023-05-14T04:54:03.225Z,226.49
2023-05-14T04:55:03.180Z,226.91
2023-05-14T04:56:03.194Z,227.49
2023-05-14T04:57:03.267Z,227.46
2023-05-14T04:58:03.196Z,225.86
2023-05-14T04:59:03.178Z,225.85
2023-05-14T05:00:03.201Z,225.77
2023-05-14T05:01:03.260Z,227.05
2023-05-14T05:02:03.288Z,226.15
2023-05-14T05:03:03.416Z,226.58
2023-05-14T05:04:03.404Z,226.79
2023-05-14T05:05:03.308Z,226.39
2023-05-14T05:06:03.298Z,227.45
2023-05-14T05:07:03.334Z,228.34
2023-05-14T05:08:03.445Z,226.56
2023-05-14T05:09:03.349Z,227.58
2023-05-14T05:10:03.367Z,226.98
2023-05-14T05:11:03.400Z,225.29
2023-05-14T05:12:03.431Z,227.83
2023-05-14T05:13:03.391Z,227.30
2023-05-14T05:14:03.463Z,227.90
2023-05-14T05:15:03.428Z,227.12
2023-05-14T05:16:03.491Z,227.19
2023-05-14T05:17:03.449Z,228.26
2023-05-14T05:18:03.502Z,226.45
2023-05-14T05:19:03.565Z,226.96
2023-05-14T05:20:03.520Z,226.74
2023-05-14T05:21:03.490Z,226.76
2023-05-14T05:22:03.548Z,226.02
2023-05-14T05:23:03.513Z,226.17
2023-05-14T05:24:03.644Z,225.86
2023-05-14T05:25:03.528Z,227.60
2023-05-14T05:26:03.539Z,227.89
2023-05-14T05:27:03.588Z,227.88
2023-05-14T05:28:03.550Z,226.68
2023-05-14T05:29:03.610Z,227.89
2023-05-14T05:30:03.574Z,224.78
2023-05-14T05:31:03.677Z,227.57
2023-05-14T05:32:03.640Z,227.37
2023-05-14T05:33:03.688Z,226.23
2023-05-14T05:34:03.638Z,226.44
2023-05-14T05:35:03.663Z,228.36
2023-05-14T05:36:03.696Z,226.41
2023-05-14T05:37:03.656Z,227.94
2023-05-14T05:38:03.730Z,226.49
2023-05-14T05:39:03.677Z,228.34
2023-05-14T05:40:03.769Z,227.31
2023-05-14T05:41:03.696Z,227.23
2023-05-14T05:42:03.762Z,226.64
2023-05-14T05:43:03.722Z,227.23
2023-05-14T05:44:03.789Z,226.18
2023-05-14T05:45:03.811Z,227.06
2023-05-14T05:46:03.846Z,226.07
2023-05-14T05:47:03.844Z,227.49
2023-05-14T05:48:03.836Z,225.46
2023-05-14T05:49:03.828Z,228.14
2023-05-14T05:50:03.842Z,226.65
2023-05-14T05:51:03.872Z,223.63
2023-05-14T05:52:03.873Z,226.71
2023-05-14T05:53:03.872Z,228.67
2023-05-14T05:54:03.935Z,226.47
2023-05-14T05:55:03.896Z,226.08
2023-05-14T05:56:03.891Z,227.04
2023-05-14T05:57:03.942Z,226.16
2023-05-14T05:58:03.962Z,226.49
2023-05-14T05:59:03.990Z,226.30
2023-05-14T06:00:03.996Z,226.35
2023-05-14T06:01:04.013Z,228.01
2023-05-14T06:02:04.104Z,226.06
2023-05-14T06:03:04.046Z,225.05
2023-05-14T06:04:04.062Z,225.50
2023-05-14T06:05:04.077Z,225.18
2023-05-14T06:06:04.067Z,227.79
2023-05-14T06:07:04.092Z,225.78
2023-05-14T06:08:04.124Z,227.33
2023-05-14T06:09:04.119Z,225.01
2023-05-14T06:10:04.153Z,225.09
2023-05-14T06:11:04.112Z,226.32
2023-05-14T06:12:04.226Z,225.23
2023-05-14T06:13:04.137Z,227.95
2023-05-14T06:14:04.152Z,226.65
2023-05-14T06:15:04.178Z,226.29
2023-05-14T06:16:04.307Z,227.38
2023-05-14T06:17:04.194Z,226.49
2023-05-14T06:18:04.286Z,227.13
2023-05-14T06:19:04.260Z,225.89
2023-05-14T06:20:04.281Z,227.18
2023-05-14T06:21:04.245Z,225.22
2023-05-14T06:22:04.335Z,227.77
2023-05-14T06:23:04.281Z,227.51
2023-05-14T06:24:04.273Z,227.02
2023-05-14T06:25:04.318Z,226.66
2023-05-14T06:26:04.275Z,228.10
2023-05-14T06:27:04.288Z,227.05
2023-05-14T06:28:04.302Z,227.50
2023-05-14T06:29:04.289Z,226.70
2023-05-14T06:30:04.286Z,225.45
2023-05-14T06:31:04.289Z,225.29
2023-05-14T06:32:04.359Z,224.32
2023-05-14T06:33:04.394Z,225.12
2023-05-14T06:34:04.332Z,224.86
2023-05-14T06:35:04.331Z,225.60
2023-05-14T06:36:04.344Z,226.26
2023-05-14T06:37:04.332Z,225.28
2023-05-14T06:38:04.442Z,224.71
2023-05-14T06:39:04.387Z,224.97
2023-05-14T06:40:04.379Z,224.87
2023-05-14T06:41:04.436Z,224.04
2023-05-14T06:42:04.406Z,226.20
2023-05-14T06:43:04.404Z,223.86
2023-05-14T06:44:04.399Z,224.65
2023-05-14T06:45:04.405Z,223.93
2023-05-14T06:46:04.411Z,223.07
2023-05-14T06:47:04.430Z,225.76
2023-05-14T06:48:04.510Z,224.89
2023-05-14T06:49:04.501Z,222.60
2023-05-14T06:50:04.507Z,225.76
2023-05-14T06:51:04.463Z,223.33
2023-05-14T06:52:04.454Z,223.93
2023-05-14T06:53:04.446Z,224.73
2023-05-14T06:54:04.445Z,224.64
2023-05-14T06:55:04.442Z,223.98
2023-05-14T06:56:04.449Z,223.51
2023-05-14T06:57:04.447Z,222.40
2023-05-14T06:58:04.428Z,224.14
2023-05-14T06:59:04.485Z,224.06
2023-05-14T07:00:04.486Z,222.47
2023-05-14T07:01:04.508Z,220.91
2023-05-14T07:02:04.466Z,222.05
2023-05-14T07:03:04.486Z,224.13
2023-05-14T07:04:04.534Z,224.28
2023-05-14T07:05:04.453Z,224.36
2023-05-14T07:06:04.516Z,222.72
2023-05-14T07:07:04.455Z,223.17
2023-05-14T07:08:04.458Z,223.85
2023-05-14T07:09:04.471Z,224.08
2023-05-14T07:10:04.488Z,222.02
2023-05-14T07:11:04.491Z,222.40
2023-05-14T07:12:04.449Z,222.89
2023-05-14T07:13:04.482Z,221.65
2023-05-14T07:14:04.470Z,222.54
2023-05-14T07:15:04.491Z,221.62
2023-05-14T07:16:04.447Z,222.10
2023-05-14T07:17:04.526Z,220.44
2023-05-14T07:18:04.501Z,223.24
2023-05-14T07:19:04.509Z,220.33
2023-05-14T07:20:04.487Z,221.31
2023-05-14T07:21:04.452Z,222.97
2023-05-14T07:22:04.465Z,220.73
2023-05-14T07:23:04.450Z,221.01
2023-05-14T07:24:04.448Z,221.10
2023-05-14T07:25:04.448Z,221.06
2023-05-14T07:26:04.457Z,222.90
2023-05-14T07:27:04.502Z,220.91
2023-05-14T07:28:04.500Z,220.94
2023-05-14T07:29:04.460Z,219.98
2023-05-14T07:30:04.525Z,222.38
2023-05-14T07:31:04.541Z,222.11
2023-05-14T07:32:04.478Z,221.66
2023-05-14T07:33:04.610Z,222.06
2023-05-14T07:34:04.547Z,221.78
2023-05-14T07:35:04.587Z,221.76
2023-05-14T07:36:04.624Z,221.89
2023-05-14T07:37:04.675Z,220.96
2023-05-14T07:38:04.686Z,221.85
2023-05-14T07:39:04.747Z,220.75
2023-05-14T07:40:04.775Z,222.70
2023-05-14T07:41:04.789Z,222.80
2023-05-14T07:42:04.800Z,223.91
2023-05-14T07:43:04.834Z,222.86
2023-05-14T07:44:04.828Z,221.59
2023-05-14T07:45:04.901Z,221.97
2023-05-14T07:46:04.948Z,221.20
2023-05-14T07:47:05.048Z,220.45
2023-05-14T07:48:05.037Z,223.04
2023-05-14T07:49:05.022Z,220.22
2023-05-14T07:50:04.996Z,218.94
2023-05-14T07:51:05.070Z,221.20
2023-05-14T07:52:05.055Z,221.36
2023-05-14T07:53:05.110Z,220.67
2023-05-14T07:54:05.145Z,221.91
2023-05-14T07:55:05.219Z,223.88
2023-05-14T07:56:05.227Z,222.74
2023-05-14T07:57:05.268Z,222.79
2023-05-14T07:58:05.320Z,224.68
2023-05-14T07:59:05.351Z,224.16
2023-05-14T08:00:05.430Z,221.73
2023-05-14T08:01:05.477Z,222.00
2023-05-14T08:02:05.593Z,221.07
2023-05-14T08:03:05.684Z,225.46
2023-05-14T08:04:05.754Z,224.08
2023-05-14T08:05:05.742Z,225.24
2023-05-14T08:06:05.815Z,226.08
2023-05-14T08:07:05.915Z,226.19
2023-05-14T08:08:05.971Z,225.52
2023-05-14T08:09:05.978Z,224.23
2023-05-14T08:10:06.045Z,226.45
2023-05-14T08:11:06.172Z,225.35
2023-05-14T08:12:06.167Z,225.37
2023-05-14T08:13:06.260Z,223.94
2023-05-14T08:14:06.335Z,224.77
2023-05-14T08:15:06.417Z,224.71
2023-05-14T08:16:06.441Z,224.03
2023-05-14T08:17:06.512Z,223.55
2023-05-14T08:18:06.561Z,224.64
2023-05-14T08:19:06.639Z,224.70
2023-05-14T08:20:06.657Z,223.95
2023-05-14T08:21:06.709Z,223.25
2023-05-14T08:22:06.768Z,223.97
2023-05-14T08:23:06.835Z,224.39
2023-05-14T08:24:06.900Z,222.93
2023-05-14T08:25:06.948Z,222.67
2023-05-14T08:26:06.965Z,222.92
2023-05-14T08:27:07.033Z,222.92
2023-05-14T08:28:07.147Z,220.42
2023-05-14T08:29:08.723Z,222.06
2023-05-14T08:30:07.145Z,220.67
2023-05-14T08:31:07.155Z,223.47
2023-05-14T08:32:19.359Z,220.58
2023-05-14T08:33:08.168Z,220.83
2023-05-14T08:34:07.140Z,221.17
2023-05-14T08:35:07.114Z,222.20
2023-05-14T08:36:07.133Z,222.15
2023-05-14T08:37:07.104Z,223.02
2023-05-14T08:38:07.095Z,221.53
2023-05-14T08:39:07.102Z,223.20
2023-05-14T08:40:07.106Z,224.25
2023-05-14T08:41:07.074Z,220.37
2023-05-14T08:42:07.079Z,221.54
2023-05-14T08:43:07.140Z,222.02
2023-05-14T08:44:07.156Z,221.63
2023-05-14T08:45:07.146Z,220.62
2023-05-14T08:46:07.208Z,222.83
2023-05-14T08:47:07.253Z,221.10
2023-05-14T08:48:07.344Z,221.96
2023-05-14T08:49:07.402Z,220.12
2023-05-14T08:50:07.362Z,219.60
2023-05-14T08:51:07.427Z,220.20
2023-05-14T08:52:07.451Z,220.79
2023-05-14T08:53:07.504Z,220.30
2023-05-14T08:54:07.561Z,220.12
2023-05-14T08:55:07.538Z,219.78
2023-05-14T08:56:07.625Z,221.40
2023-05-14T08:57:07.628Z,220.11
2023-05-14T08:58:07.697Z,220.31
2023-05-14T08:59:07.674Z,219.57
2023-05-14T09:00:07.701Z,222.00
2023-05-14T09:01:07.788Z,218.91
2023-05-14T09:02:07.921Z,219.22
2023-05-14T09:03:08.057Z,219.05
2023-05-14T09:04:07.902Z,216.13
2023-05-14T09:05:07.915Z,217.01
2023-05-14T09:06:07.935Z,220.05
2023-05-14T09:07:08.001Z,221.08
2023-05-14T09:08:07.973Z,220.59
2023-05-14T09:09:08.031Z,219.53
2023-05-14T09:10:08.098Z,220.28
2023-05-14T09:11:08.182Z,219.07
2023-05-14T09:12:08.147Z,221.28
2023-05-14T09:13:08.212Z,220.78
2023-05-14T09:14:08.174Z,219.72
2023-05-14T09:15:08.262Z,219.80
2023-05-14T09:16:08.288Z,220.82
2023-05-14T09:17:08.326Z,221.06
2023-05-14T09:18:08.449Z,219.80
2023-05-14T09:19:08.364Z,220.04
2023-05-14T09:20:08.418Z,221.57
2023-05-14T09:21:08.431Z,221.07
2023-05-14T09:22:08.432Z,221.87
2023-05-14T09:23:08.488Z,221.74
2023-05-14T09:24:08.548Z,221.49
2023-05-14T09:25:08.548Z,221.50
2023-05-14T09:26:08.585Z,219.88
2023-05-14T09:27:08.598Z,222.07
2023-05-14T09:28:08.623Z,222.81
2023-05-14T09:29:08.634Z,222.11
2023-05-14T09:30:08.657Z,221.37
2023-05-14T09:31:08.700Z,222.78
2023-05-14T09:32:08.776Z,222.83
2023-05-14T09:33:08.782Z,224.53
2023-05-14T09:34:08.750Z,223.10
2023-05-14T09:35:08.817Z,223.74
2023-05-14T09:36:08.812Z,224.29
2023-05-14T09:37:08.845Z,223.25
2023-05-14T09:38:08.880Z,223.33
2023-05-14T09:39:08.874Z,224.33
2023-05-14T09:40:08.892Z,223.68
2023-05-14T09:41:08.965Z,221.36
2023-05-14T09:42:08.914Z,223.42
2023-05-14T09:43:08.956Z,222.36
2023-05-14T09:44:08.981Z,222.89
2023-05-14T09:45:09.008Z,224.59
2023-05-14T09:46:09.013Z,222.36
2023-05-14T09:47:09.084Z,224.00
2023-05-14T09:48:09.133Z,222.64
2023-05-14T09:49:09.079Z,223.06
2023-05-14T09:50:09.149Z,222.57
2023-05-14T09:51:09.121Z,222.12
2023-05-14T09:52:09.143Z,225.09
2023-05-14T09:53:09.135Z,221.83
2023-05-14T09:54:09.145Z,223.84
2023-05-14T09:55:09.155Z,223.96
2023-05-14T09:56:09.153Z,223.33
2023-05-14T09:57:09.173Z,221.51
2023-05-14T09:58:09.203Z,222.59
2023-05-14T09:59:09.203Z,224.03
2023-05-14T10:00:09.202Z,223.38
2023-05-14T10:01:09.260Z,222.61
2023-05-14T10:02:09.248Z,223.97
2023-05-14T10:03:09.273Z,222.52
2023-05-14T10:04:09.259Z,222.47
2023-05-14T10:05:09.262Z,224.47
2023-05-14T10:06:09.271Z,223.33
2023-05-14T10:07:09.278Z,223.27
2023-05-14T10:08:09.297Z,223.16
2023-05-14T10:09:09.293Z,223.34
2023-05-14T10:10:09.300Z,223.38
2023-05-14T10:11:09.299Z,224.05
2023-05-14T10:12:09.304Z,222.16
2023-05-14T10:13:09.314Z,221.99
2023-05-14T10:14:09.356Z,222.03
2023-05-14T10:15:09.309Z,221.36
2023-05-14T10:16:09.306Z,222.52
2023-05-14T10:17:09.396Z,223.57
2023-05-14T10:18:09.426Z,224.64
2023-05-14T10:19:09.472Z,223.27
2023-05-14T10:20:09.390Z,223.01
2023-05-14T10:21:09.361Z,222.60
2023-05-14T10:22:09.382Z,222.97
2023-05-14T10:23:09.426Z,223.90
2023-05-14T10:24:09.372Z,220.79
2023-05-14T10:25:09.420Z,224.00
2023-05-14T10:26:09.391Z,223.01
2023-05-14T10:27:09.399Z,222.32
2023-05-14T10:28:09.415Z,222.07
2023-05-14T10:29:09.448Z,223.74
2023-05-14T10:30:09.392Z,221.28
2023-05-14T10:31:09.447Z,221.65
2023-05-14T10:32:09.416Z,222.64
2023-05-14T10:33:09.458Z,220.71
2023-05-14T10:34:09.417Z,221.15
2023-05-14T10:35:09.421Z,222.59
2023-05-14T10:36:09.383Z,221.46
2023-05-14T10:37:09.437Z,223.31
2023-05-14T10:38:09.411Z,221.73
2023-05-14T10:39:09.409Z,221.29
2023-05-14T10:40:09.413Z,221.45
2023-05-14T10:41:09.435Z,221.92
2023-05-14T10:42:09.392Z,221.27
2023-05-14T10:43:09.395Z,221.09
2023-05-14T10:44:09.471Z,222.03
2023-05-14T10:45:09.417Z,220.78
2023-05-14T10:46:09.498Z,222.49
2023-05-14T10:47:09.437Z,220.66
2023-05-14T10:48:09.465Z,221.54
2023-05-14T10:49:09.418Z,222.56
2023-05-14T10:50:09.436Z,221.58
2023-05-14T10:51:09.455Z,221.38
2023-05-14T10:52:09.450Z,221.47
2023-05-14T10:53:09.441Z,221.98
2023-05-14T10:54:09.412Z,221.65
2023-05-14T10:55:09.412Z,220.97
2023-05-14T10:56:09.457Z,220.82
2023-05-14T10:57:09.431Z,222.66
2023-05-14T10:58:09.406Z,222.27
2023-05-14T10:59:09.410Z,220.25
2023-05-14T11:00:09.415Z,223.18
2023-05-14T11:01:09.434Z,221.30
2023-05-14T11:02:09.527Z,220.52
2023-05-14T11:03:09.495Z,222.75
2023-05-14T11:04:09.495Z,220.93
2023-05-14T11:05:09.446Z,223.45
2023-05-14T11:06:09.439Z,220.81
2023-05-14T11:07:09.472Z,221.10
2023-05-14T11:08:09.477Z,220.08
2023-05-14T11:09:09.447Z,220.11
2023-05-14T11:10:09.446Z,221.10
2023-05-14T11:11:09.478Z,220.95
2023-05-14T11:12:09.485Z,220.04
2023-05-14T11:13:09.437Z,222.36
2023-05-14T11:14:10.210Z,220.43
2023-05-14T11:15:09.507Z,220.89
2023-05-14T11:16:21.709Z,220.90
2023-05-14T11:17:10.655Z,220.94
2023-05-14T11:18:09.556Z,220.94
2023-05-14T11:19:09.494Z,220.00
2023-05-14T11:20:09.452Z,221.19
2023-05-14T11:21:09.484Z,220.06
2023-05-14T11:22:09.437Z,219.96
2023-05-14T11:23:09.466Z,221.74
2023-05-14T11:24:09.460Z,219.07
2023-05-14T11:25:09.453Z,219.07
2023-05-14T11:26:09.418Z,220.58
2023-05-14T11:27:09.403Z,220.68
2023-05-14T11:28:09.411Z,220.98
2023-05-14T11:29:09.398Z,217.87
2023-05-14T11:30:09.409Z,217.84
2023-05-14T11:31:09.397Z,220.37
2023-05-14T11:32:09.404Z,218.14
2023-05-14T11:33:09.385Z,216.33
2023-05-14T11:34:09.378Z,219.90
2023-05-14T11:35:09.408Z,218.05
2023-05-14T11:36:09.358Z,218.28
2023-05-14T11:37:09.339Z,217.23
2023-05-14T11:38:09.393Z,220.61
2023-05-14T11:39:09.314Z,219.08
2023-05-14T11:40:09.327Z,218.77
2023-05-14T11:41:09.316Z,219.97
2023-05-14T11:42:09.293Z,218.44
2023-05-14T11:43:09.275Z,218.69
2023-05-14T11:44:09.280Z,218.97
2023-05-14T11:45:09.292Z,218.12
2023-05-14T11:46:09.318Z,218.78
2023-05-14T11:47:09.297Z,219.55
2023-05-14T11:48:09.275Z,217.47
2023-05-14T11:49:09.246Z,219.71
2023-05-14T11:50:09.646Z,217.73
2023-05-14T11:51:09.219Z,218.69
2023-05-14T11:52:09.237Z,218.72
2023-05-14T11:53:09.302Z,219.09
2023-05-14T11:54:09.208Z,219.44
2023-05-14T11:55:09.251Z,218.33
2023-05-14T11:56:09.918Z,220.18
2023-05-14T11:57:09.185Z,216.97
2023-05-14T11:58:09.170Z,218.44
2023-05-14T11:59:09.169Z,216.72
2023-05-14T12:00:09.216Z,219.83
2023-05-14T12:01:09.148Z,219.32
2023-05-14T12:02:09.193Z,219.91
2023-05-14T12:03:09.257Z,219.20
2023-05-14T12:04:09.191Z,217.55
2023-05-14T12:05:09.179Z,216.89
2023-05-14T12:06:09.126Z,216.22
2023-05-14T12:07:09.141Z,217.87
2023-05-14T12:08:09.124Z,219.00
2023-05-14T12:09:09.277Z,216.68
2023-05-14T12:10:09.111Z,220.26
2023-05-14T12:11:09.126Z,220.05
2023-05-14T12:12:09.095Z,217.43
2023-05-14T12:13:09.092Z,218.33
2023-05-14T12:14:09.117Z,218.94
2023-05-14T12:15:09.117Z,215.97
2023-05-14T12:16:09.166Z,217.21
2023-05-14T12:17:09.121Z,219.76
2023-05-14T12:18:22.971Z,217.23
2023-05-14T12:19:10.176Z,217.35
2023-05-14T12:20:09.128Z,217.40
2023-05-14T12:21:09.127Z,217.56
2023-05-14T12:22:09.114Z,218.75
2023-05-14T12:23:09.102Z,217.94
2023-05-14T12:24:09.072Z,217.96
2023-05-14T12:25:09.090Z,216.99
2023-05-14T12:26:09.098Z,215.96
2023-05-14T12:27:09.099Z,216.32
2023-05-14T12:28:09.075Z,217.70